createdAt,value
2023-04-09T00:03:31.919Z,63.10
2023-04-09T00:07:14.150Z,63.00
2023-04-09T00:10:57.387Z,62.90
2023-04-09T00:14:39.250Z,62.70
2023-04-09T00:18:21.380Z,62.60
2023-04-09T00:22:03.296Z,62.40
2023-04-09T00:25:45.276Z,62.50
2023-04-09T00:29:27.349Z,62.60
2023-04-09T00:33:09.211Z,62.70
2023-04-09T00:36:51.106Z,62.60
2023-04-09T00:40:33.128Z,62.70
2023-04-09T00:44:15.081Z,62.80
2023-04-09T00:47:56.939Z,63.10
2023-04-09T00:51:39.036Z,63.10
2023-04-09T00:55:22.430Z,63.10
2023-04-09T00:59:04.934Z,63.10
2023-04-09T01:02:47.759Z,63.30
2023-04-09T01:07:00.965Z,63.30
2023-04-09T01:11:09.094Z,65.20
2023-04-09T01:14:53.965Z,65.00
2023-04-09T01:18:51.882Z,62.90
2023-04-09T01:22:58.441Z,64.30
2023-04-09T01:27:05.521Z,64.80
2023-04-09T01:30:53.759Z,65.30
2023-04-09T01:34:36.280Z,63.70
2023-04-09T01:38:21.546Z,63.70
2023-04-09T01:42:04.162Z,63.90
2023-04-09T01:45:47.238Z,64.10
2023-04-09T01:49:29.696Z,64.30
2023-04-09T01:53:11.973Z,64.60
2023-04-09T01:56:54.026Z,64.50
2023-04-09T02:00:39.518Z,64.50
2023-04-09T02:04:27.137Z,64.70
2023-04-09T02:08:15.183Z,64.70
2023-04-09T02:12:02.525Z,64.80
2023-04-09T02:15:46.304Z,64.90
2023-04-09T02:19:44.750Z,65.00
2023-04-09T02:23:27.601Z,66.60
2023-04-09T02:27:09.580Z,65.70
2023-04-09T02:30:51.770Z,65.80
2023-04-09T02:34:34.135Z,65.90
2023-04-09T02:38:16.188Z,66.10
2023-04-09T02:41:58.150Z,66.20
2023-04-09T02:45:40.196Z,66.30
2023-04-09T02:49:22.114Z,66.40
2023-04-09T02:53:04.029Z,66.30
2023-04-09T02:56:45.915Z,66.40
2023-04-09T03:00:27.813Z,66.60
2023-04-09T03:04:09.855Z,66.80
2023-04-09T03:07:51.898Z,66.90
2023-04-09T03:11:33.803Z,66.80
2023-04-09T03:15:15.963Z,66.60
2023-04-09T03:18:58.492Z,66.20
2023-04-09T03:22:40.550Z,66.00
2023-04-09T03:26:22.420Z,65.90
2023-04-09T03:30:04.675Z,65.90
2023-04-09T03:33:46.615Z,65.90
2023-04-09T03:37:28.516Z,66.30
2023-04-09T03:41:10.449Z,66.40
2023-04-09T03:44:54.946Z,66.30
2023-04-09T03:48:37.076Z,66.10
2023-04-09T03:52:18.949Z,66.20
2023-04-09T03:56:01.868Z,66.30
2023-04-09T03:59:43.876Z,66.40
2023-04-09T04:03:26.023Z,66.40
2023-04-09T04:07:08.945Z,66.40
2023-04-09T04:10:51.132Z,66.40
2023-04-09T04:14:33.146Z,66.60
2023-04-09T04:18:15.529Z,66.90
2023-04-09T04:21:57.484Z,67.10
2023-04-09T04:25:42.619Z,67.10
2023-04-09T04:29:24.558Z,67.20
2023-04-09T04:33:06.440Z,67.20
2023-04-09T04:36:48.333Z,67.30
2023-04-09T04:40:30.328Z,67.40
2023-04-09T04:44:12.203Z,67.40
2023-04-09T04:47:54.254Z,67.60
2023-04-09T04:51:36.144Z,67.60
2023-04-09T04:55:18.126Z,67.70
2023-04-09T04:59:01.100Z,67.90
2023-04-09T05:02:43.311Z,67.90
2023-04-09T05:06:26.300Z,68.10
2023-04-09T05:10:08.971Z,68.40
2023-04-09T05:13:51.542Z,68.60
2023-04-09T05:17:33.476Z,68.80
2023-04-09T05:21:15.719Z,68.90
2023-04-09T05:24:57.631Z,69.00
2023-04-09T05:28:39.522Z,69.00
2023-04-09T05:32:21.601Z,69.20
2023-04-09T05:36:03.970Z,69.00
2023-04-09T05:39:45.979Z,69.10
2023-04-09T05:43:27.946Z,69.30
2023-04-09T05:47:09.833Z,69.50
2023-04-09T05:50:55.834Z,69.20
2023-04-09T05:54:38.111Z,69.70
2023-04-09T05:58:20.118Z,69.80
2023-04-09T06:02:02.660Z,70.00
2023-04-09T06:05:46.664Z,70.40
2023-04-09T06:09:28.629Z,70.50
2023-04-09T06:13:10.778Z,72.30
2023-04-09T06:16:52.783Z,70.80
2023-04-09T06:20:34.827Z,70.40
2023-04-09T06:24:16.958Z,70.40
2023-04-09T06:27:58.898Z,70.20
2023-04-09T06:31:40.970Z,69.80
2023-04-09T06:35:23.544Z,70.00
2023-04-09T06:39:05.934Z,69.60
2023-04-09T06:42:47.811Z,69.60
2023-04-09T06:46:29.697Z,69.60
2023-04-09T06:50:11.658Z,69.40
2023-04-09T06:53:53.938Z,69.50
2023-04-09T06:57:36.341Z,69.60
2023-04-09T07:01:18.333Z,70.10
2023-04-09T07:05:00.951Z,70.50
2023-04-09T07:08:42.880Z,70.70
2023-04-09T07:12:32.242Z,70.20
2023-04-09T07:16:14.276Z,70.70
2023-04-09T07:19:56.558Z,71.20
2023-04-09T07:23:38.550Z,71.40
2023-04-09T07:27:21.335Z,73.30
2023-04-09T07:31:03.544Z,72.00
2023-04-09T07:34:45.524Z,72.40
2023-04-09T07:38:31.122Z,71.70
2023-04-09T07:42:13.149Z,71.40
2023-04-09T07:45:55.645Z,71.40
2023-04-09T07:49:40.847Z,72.20
2023-04-09T07:53:22.740Z,71.80
2023-04-09T07:57:04.667Z,72.00
2023-04-09T08:00:46.846Z,72.50
2023-04-09T08:04:29.373Z,72.50
2023-04-09T08:08:11.482Z,72.20
2023-04-09T08:11:53.396Z,73.20
2023-04-09T08:15:35.327Z,71.90
2023-04-09T08:19:18.115Z,72.10
2023-04-09T08:23:00.017Z,72.40
2023-04-09T08:26:42.737Z,72.30
2023-04-09T08:30:24.740Z,72.10
2023-04-09T08:34:08.291Z,71.90
2023-04-09T08:37:50.623Z,71.40
2023-04-09T08:41:32.607Z,71.60
2023-04-09T08:45:14.678Z,74.00
2023-04-09T08:48:57.171Z,74.30
2023-04-09T08:52:40.938Z,77.00
2023-04-09T08:56:23.903Z,75.90
2023-04-09T09:00:07.104Z,69.50
2023-04-09T09:04:03.889Z,70.80
2023-04-09T09:07:54.816Z,63.90
2023-04-09T09:11:47.355Z,59.80
2023-04-09T09:15:29.898Z,58.50
2023-04-09T09:19:27.086Z,65.10
2023-04-09T09:23:09.917Z,59.00
2023-04-09T09:26:52.573Z,65.20
2023-04-09T09:30:36.611Z,61.00
2023-04-09T09:34:20.039Z,59.40
2023-04-09T09:38:04.247Z,56.90
2023-04-09T09:41:47.413Z,57.00
2023-04-09T09:45:30.214Z,57.80
2023-04-09T09:49:12.903Z,55.30
2023-04-09T09:53:01.745Z,53.20
2023-04-09T09:56:45.187Z,53.20
2023-04-09T10:00:29.051Z,52.00
2023-04-09T10:04:14.928Z,53.80
2023-04-09T10:07:59.001Z,52.30
2023-04-09T10:11:45.692Z,51.10
2023-04-09T10:15:31.157Z,48.10
2023-04-09T10:19:15.226Z,49.50
2023-04-09T10:22:59.163Z,48.40
2023-04-09T10:26:42.980Z,47.40
2023-04-09T10:30:37.696Z,48.30
2023-04-09T10:34:23.619Z,44.30
2023-04-09T10:38:10.192Z,48.00
2023-04-09T10:41:54.607Z,48.20
2023-04-09T10:45:43.350Z,47.70
2023-04-09T10:49:27.210Z,45.00
2023-04-09T10:53:25.067Z,46.20
2023-04-09T10:57:23.257Z,43.50
2023-04-09T11:01:05.479Z,42.60
2023-04-09T11:05:07.355Z,44.90
2023-04-09T11:08:49.322Z,43.90
2023-04-09T11:12:31.280Z,45.60
2023-04-09T11:16:13.169Z,45.10
2023-04-09T11:20:06.607Z,43.70
2023-04-09T11:23:55.147Z,43.90
2023-04-09T11:27:46.748Z,43.90
2023-04-09T11:31:29.314Z,43.40
2023-04-09T11:35:19.098Z,42.90
2023-04-09T11:39:02.822Z,41.90
2023-04-09T11:42:46.691Z,42.50
2023-04-09T11:46:29.027Z,42.20
2023-04-09T11:50:12.793Z,42.50
2023-04-09T11:53:55.073Z,42.90
2023-04-09T11:57:46.330Z,42.50
2023-04-09T12:01:33.060Z,42.10
2023-04-09T12:05:35.834Z,43.00
2023-04-09T12:09:18.157Z,40.90
2023-04-09T12:13:06.577Z,41.80
2023-04-09T12:16:52.393Z,41.70
2023-04-09T12:20:43.631Z,42.00
2023-04-09T12:24:26.535Z,42.10
2023-04-09T12:28:11.560Z,41.70
2023-04-09T12:31:54.109Z,42.30
2023-04-09T12:35:38.117Z,43.10
2023-04-09T12:39:21.069Z,43.90
2023-04-09T12:43:03.369Z,44.20
2023-04-09T12:46:45.229Z,43.60
2023-04-09T12:50:27.369Z,42.90
2023-04-09T12:54:09.229Z,42.50
2023-04-09T12:57:52.456Z,43.70
2023-04-09T13:01:34.503Z,43.70
2023-04-09T13:05:16.521Z,44.30
2023-04-09T13:08:58.394Z,45.00
2023-04-09T13:12:40.425Z,45.30
2023-04-09T13:16:22.452Z,45.90
2023-04-09T13:20:04.872Z,45.90
2023-04-09T13:23:46.858Z,45.90
2023-04-09T13:27:28.762Z,46.20
2023-04-09T13:31:10.695Z,46.50
2023-04-09T13:34:54.608Z,47.00
2023-04-09T13:38:36.545Z,47.70
2023-04-09T13:42:18.680Z,46.90
2023-04-09T13:46:00.857Z,47.20
2023-04-09T13:49:43.663Z,47.00
2023-04-09T13:53:25.719Z,46.80
2023-04-09T13:57:07.971Z,46.60
2023-04-09T14:00:49.912Z,46.20
2023-04-09T14:04:32.079Z,45.60
2023-04-09T14:08:13.983Z,45.70
2023-04-09T14:11:56.301Z,46.20
2023-04-09T14:15:38.365Z,46.10
2023-04-09T14:19:20.530Z,45.80
2023-04-09T14:23:02.452Z,46.40
2023-04-09T14:26:44.466Z,46.10
2023-04-09T14:30:26.424Z,46.00
2023-04-09T14:34:08.518Z,46.00
2023-04-09T14:37:50.397Z,46.10
2023-04-09T14:41:34.478Z,46.50
2023-04-09T14:45:16.898Z,46.80
2023-04-09T14:48:59.024Z,47.00
2023-04-09T14:52:41.027Z,46.90
2023-04-09T14:56:23.017Z,47.10
2023-04-09T15:00:06.788Z,47.40
2023-04-09T15:03:48.897Z,47.60
2023-04-09T15:07:31.044Z,47.90
2023-04-09T15:11:21.009Z,48.10
2023-04-09T15:15:06.986Z,48.90
2023-04-09T15:18:51.994Z,48.90
2023-04-09T15:22:34.494Z,49.30
2023-04-09T15:26:17.173Z,49.30
2023-04-09T15:29:59.028Z,49.40
2023-04-09T15:33:43.807Z,49.40
2023-04-09T15:37:25.831Z,49.70
2023-04-09T15:41:07.794Z,50.10
2023-04-09T15:44:50.564Z,50.30
2023-04-09T15:48:33.072Z,50.60
2023-04-09T15:52:14.997Z,50.60
2023-04-09T15:55:58.231Z,51.10
2023-04-09T15:59:40.251Z,51.40
2023-04-09T16:03:22.187Z,51.40
2023-04-09T16:07:04.452Z,51.50
2023-04-09T16:10:46.361Z,51.50
2023-04-09T16:14:28.244Z,51.20
2023-04-09T16:18:12.078Z,51.30
2023-04-09T16:21:53.988Z,51.20
2023-04-09T16:25:36.293Z,51.40
2023-04-09T16:29:18.774Z,51.50
2023-04-09T16:33:01.108Z,51.30
2023-04-09T16:36:43.498Z,51.40
2023-04-09T16:40:25.407Z,51.50
2023-04-09T16:44:07.355Z,51.20
2023-04-09T16:47:51.929Z,51.00
2023-04-09T16:51:35.537Z,50.70
2023-04-09T16:55:17.598Z,50.90
2023-04-09T16:58:59.509Z,50.80
2023-04-09T17:02:41.545Z,50.80
2023-04-09T17:06:23.590Z,50.60
2023-04-09T17:10:06.456Z,50.80
2023-04-09T17:13:48.580Z,50.90
2023-04-09T17:17:30.476Z,51.00
2023-04-09T17:21:12.931Z,50.80
2023-04-09T17:24:54.805Z,50.90
2023-04-09T17:28:36.776Z,51.20
2023-04-09T17:32:18.833Z,51.30
2023-04-09T17:36:01.582Z,51.40
2023-04-09T17:39:46.125Z,51.60
2023-04-09T17:43:28.230Z,51.80
2023-04-09T17:47:12.319Z,52.00
2023-04-09T17:50:54.843Z,52.10
2023-04-09T17:54:36.835Z,52.30
2023-04-09T17:58:19.315Z,53.00
2023-04-09T18:02:02.330Z,53.40
2023-04-09T18:05:44.548Z,53.40
2023-04-09T18:09:26.582Z,53.80
2023-04-09T18:13:08.615Z,54.30
2023-04-09T18:16:50.707Z,54.40
2023-04-09T18:20:32.711Z,55.00
2023-04-09T18:24:14.656Z,55.40
2023-04-09T18:27:57.179Z,55.50
2023-04-09T18:31:39.107Z,55.60
2023-04-09T18:35:21.301Z,55.70
2023-04-09T18:39:05.116Z,56.00
2023-04-09T18:42:52.528Z,56.00
2023-04-09T18:46:34.476Z,56.50
2023-04-09T18:50:17.871Z,57.30
2023-04-09T18:54:00.758Z,56.50
2023-04-09T18:57:44.180Z,57.10
2023-04-09T19:01:26.263Z,57.50
2023-04-09T19:05:08.592Z,58.00
2023-04-09T19:08:52.987Z,58.40
2023-04-09T19:12:35.022Z,57.90
2023-04-09T19:16:18.469Z,57.80
2023-04-09T19:20:00.445Z,58.40
2023-04-09T19:23:42.268Z,58.30
2023-04-09T19:27:24.744Z,58.30
2023-04-09T19:31:08.107Z,58.60
2023-04-09T19:34:50.060Z,58.60
2023-04-09T19:38:32.041Z,59.00
2023-04-09T19:42:14.088Z,59.30
2023-04-09T19:45:57.034Z,59.50
2023-04-09T19:49:39.487Z,60.00
2023-04-09T19:53:23.688Z,59.90
2023-04-09T19:57:05.727Z,59.90
2023-04-09T20:00:47.626Z,60.30
2023-04-09T20:04:31.054Z,60.40
2023-04-09T20:08:15.926Z,60.20
2023-04-09T20:12:04.297Z,60.00
2023-04-09T20:15:46.246Z,60.00
2023-04-09T20:19:28.103Z,59.70
2023-04-09T20:23:10.008Z,59.90
2023-04-09T20:26:52.172Z,60.30
2023-04-09T20:30:34.280Z,60.50
2023-04-09T20:34:16.259Z,59.90
2023-04-09T20:37:58.176Z,59.90
2023-04-09T20:41:40.400Z,60.30
2023-04-09T20:45:22.367Z,60.30
2023-04-09T20:49:04.404Z,60.80
2023-04-09T20:52:47.562Z,61.00
2023-04-09T20:56:29.957Z,60.60
2023-04-09T21:00:12.691Z,60.80
2023-04-09T21:03:54.782Z,61.10
2023-04-09T21:07:36.782Z,61.30
2023-04-09T21:11:18.748Z,61.70
2023-04-09T21:15:03.134Z,62.10
2023-04-09T21:18:45.112Z,61.60
2023-04-09T21:22:27.005Z,61.30
2023-04-09T21:26:10.183Z,61.40
2023-04-09T21:29:52.647Z,61.20
2023-04-09T21:33:35.141Z,61.80
2023-04-09T21:37:17.224Z,61.50
2023-04-09T21:40:59.871Z,62.00
2023-04-09T21:44:41.966Z,62.40
2023-04-09T21:48:24.761Z,62.30
2023-04-09T21:52:14.037Z,62.20
2023-04-09T21:55:56.419Z,62.10
2023-04-09T21:59:38.457Z,62.90
2023-04-09T22:03:20.853Z,61.90
2023-04-09T22:07:04.010Z,62.30
2023-04-09T22:10:46.283Z,62.40
2023-04-09T22:14:29.620Z,62.80
2023-04-09T22:18:11.932Z,63.20
2023-04-09T22:21:54.458Z,63.00
2023-04-09T22:25:36.578Z,63.70
2023-04-09T22:29:18.582Z,64.20
2023-04-09T22:33:02.241Z,64.60
2023-04-09T22:36:44.332Z,65.40
2023-04-09T22:40:26.776Z,65.40
2023-04-09T22:44:09.659Z,66.60
2023-04-09T22:47:51.905Z,66.50
2023-04-09T22:51:34.877Z,67.20
2023-04-09T22:55:17.141Z,67.80
2023-04-09T22:58:59.475Z,68.00
2023-04-09T23:02:41.845Z,68.00
2023-04-09T23:06:25.596Z,69.00
2023-04-09T23:10:08.107Z,69.60
2023-04-09T23:13:50.105Z,70.30
2023-04-09T23:17:32.091Z,70.20
2023-04-09T23:21:14.107Z,69.60
2023-04-09T23:24:56.762Z,70.70
2023-04-09T23:28:38.760Z,70.90
2023-04-09T23:32:21.345Z,70.70
2023-04-09T23:36:03.370Z,71.20
2023-04-09T23:39:48.053Z,73.20
2023-04-09T23:43:30.048Z,72.10
2023-04-09T23:47:13.893Z,73.00
2023-04-09T23:50:55.894Z,73.90
2023-04-09T23:54:38.024Z,73.40
2023-04-09T23:58:21.250Z,72.90
